Badger Spring Valley, Nevada Weather observations

Data are for 10 minute period ending at time listed.
 Day   Time   Solar   Ave.   Ave.  Ave.  Vector  Max.   Baro.   Total    
  of    of     Rad.   Air    Rel.  Wind   Wind   Wind  Press.  Precip.   
Year   Day            Temp.  Hum.  Speed  Dir.   Gust                    
2015   (PST)  Kw/m2    F      %     mph   deg.    mph    mb.     in.     
-------------------------------------------------------------------------
 116    0:00   0.00   39.1    64    4.9   344     8.1   823.4    0.00 
 116    0:10   0.00   38.9    63    6.3   334    11.1   823.4    0.00 
 116    0:20   0.00   39.6    60    6.3   336    14.1   823.5    0.00 
 116    0:30   0.00   40.0    57    9.0   335    17.5   823.5    0.00 
 116    0:40   0.00   40.3    56   10.6   323    15.5   823.3    0.00 
 116    0:50   0.00   40.4    55    8.1   323    15.1   823.3    0.00 
 116    1:00   0.00   40.1    56    7.9   330    14.4   823.4    0.00 
 116    1:10   0.00   39.7    58    7.9   349    13.1   823.5    0.00 
 116    1:20   0.00   39.0    60   12.2   360    17.6   823.5    0.00 
 116    1:30   0.00   39.0    61    9.8   356    16.5   823.6    0.00 
 116    1:40   0.00   38.6    65    7.2   352    16.3   823.6    0.00 
 116    1:50   0.00   38.0    68    3.7   359     9.3   823.7    0.00 
 116    2:00   0.00   37.7    69    4.1   105     8.8   823.7    0.00 
 116    2:10   0.00   37.2    70    2.6   235     6.9   823.9    0.00 
 116    2:20   100.00  99999.0   99999  99999.0   99999   99999.0   99999.0   99999.00 
 116    2:30   100.00  99999.0   99999  99999.0   99999   99999.0   99999.0   99999.00 
 116    2:40   100.00  99999.0   99999  99999.0   99999   99999.0   99999.0   99999.00 
 116    2:50   100.00  99999.0   99999  99999.0   99999   99999.0   99999.0   99999.00 
 116    3:00   100.00  99999.0   99999  99999.0   99999   99999.0   99999.0   99999.00 
 116    3:10   100.00  99999.0   99999  99999.0   99999   99999.0   99999.0   99999.00 
 116    3:20   0.00   37.6    67   11.2   305    19.4   824.5    0.00 
 116    3:30   0.00   38.4    62   14.0   296    27.0   824.4    0.00 
 116    3:40   0.00   39.2    57   10.7   324    18.5   824.4    0.00 
 116    3:50   0.00   38.4    62   10.4   323    19.6   824.6    0.00 
 116    4:00   0.00   38.0    64    9.5   327    20.1   824.7    0.00 
 116    4:10   0.00   37.5    66    8.9   322    17.0   824.8    0.00 
 116    4:20   0.00   37.4    66    8.3   319    16.1   824.9    0.00 
 116    4:30   0.00   37.3    66    9.6   308    19.6   825.0    0.00 
 116    4:40   0.00   37.3    66   10.5   317    16.3   825.1    0.00 
 116    4:50   0.00   36.9    68    9.4   330    15.5   825.4    0.00 
 116    5:00   0.01   36.9    68    9.5   353    15.5   825.5    0.00 
 116    5:10   0.03   36.6    68    9.7   351    14.0   825.6    0.00 
 116    5:20   0.05   37.1    66   12.1   341    17.2   825.5    0.00 
 116    5:30   0.08   37.4    66   13.6   338    21.8   825.6    0.00 
 116    5:40   0.11   37.7    66   13.1   335    21.4   825.7    0.00 
 116    5:50   0.14   38.6    64   12.1   342    17.4   825.9    0.00 
 116    6:00   0.18   39.1    64   11.5   354    15.8   826.1    0.00 
 116    6:10   0.21   39.9    61   12.7   344    18.7   826.3    0.00 
 116    6:20   0.25   40.5    59   11.9   344    16.4   826.4    0.00 
 116    6:30   0.29   40.9    59   11.6     0    16.9   826.6    0.00 
 116    6:40   0.33   40.8    59   10.3   358    15.6   826.6    0.00 
 116    6:50   0.37   41.4    58    9.7     5    15.6   826.7    0.00 
 116    7:00   0.42   41.2    59   14.0   360    24.2   826.7    0.00 
 116    7:10   0.46   41.4    59   15.4   346    21.3   826.7    0.00 
 116    7:20   0.50   42.0    58   15.6   349    24.1   826.8    0.00 
 116    7:30   0.54   42.1    57   17.5   348    23.0   826.8    0.00 
 116    7:40   0.57   42.8    57   13.7   346    20.8   826.9    0.00 
 116    7:50   0.61   43.4    56   12.4   348    17.6   827.1    0.00 
 116    8:00   0.66   43.5    56   11.5     2    17.5   827.2    0.00 
 116    8:10   0.74   43.8    54    9.5    13    17.8   827.3    0.00 
 116    8:20   0.89   45.2    52    9.9     3    21.5   827.4    0.00 
 116    8:30   0.38   44.5    51    8.9   357    19.4   827.4    0.00 
 116    8:40   0.80   44.5    50   12.2    21    27.6   827.4    0.00 
 116    8:50   0.82   45.0    49   13.2    17    26.0   827.5    0.00 
 116    9:00   0.89   45.1    48   12.5    22    25.6   827.5    0.00 
 116    9:10   0.95   45.9    45   15.9   353    27.1   827.7    0.00 
 116    9:20   0.95   46.8    38   16.9   352    30.9   827.6    0.00 
 116    9:30   0.91   46.6    32   19.8   348    33.5   827.8    0.00 
 116    9:40   0.95   46.9    31   21.4   351    30.5   827.8    0.00 
 116    9:50   1.01   47.5    30   21.1   346    33.5   827.9    0.00 
 116   10:00   1.03   47.1    29   25.1   354    38.7   828.0    0.00 
 116   10:10   1.04   47.1    30   17.9   358    35.6   828.0    0.00 
 116   10:20   1.05   47.6    30   18.1   353    30.9   828.1    0.00 
 116   10:30   1.07   47.9    28   23.0     0    38.1   828.1    0.00 
 116   10:40   1.09   47.8    27   24.0   353    38.5   828.3    0.00 
 116   10:50   1.10   47.9    27   22.5   355    36.0   828.2    0.00 
 116   11:00   1.10   48.3    27   19.2   356    35.4   828.2    0.00 
 116   11:10   1.11   48.6    27   17.5   355    28.9   828.2    0.00 
 116   11:20   1.12   48.6    26   15.7   358    30.5   828.2    0.00 
 116   11:30   1.12   49.6    25   19.3   354    31.0   828.2    0.00 
 116   11:40   1.12   49.4    26   15.4    11    29.2   828.3    0.00 
 116   11:50   1.13   49.7    25   19.5   352    32.1   828.3    0.00 
 116   12:00   1.12   50.0    25   18.8   358    31.2   828.3    0.00 
 116   12:10   1.11   49.9    25   21.8   345    37.0   828.4    0.00 
 116   12:20   1.05   49.9    24   15.2     7    30.8   828.4    0.00 
 116   12:30   1.10   50.0    25   17.2     9    32.5   828.4    0.00 
 116   12:40   1.09   50.6    24   15.3     3    30.3   828.5    0.00 
 116   12:50   1.07   50.5    24   14.4    11    28.4   828.6    0.00 
 116   13:00   1.06   50.9    24   17.5   357    34.0   828.6    0.00 
 116   13:10   1.04   51.0    23   18.4     9    31.8   828.8    0.00 
 116   13:20   1.02   50.9    24   14.0     1    32.7   828.9    0.00 
 116   13:30   1.00   52.0    24   13.1   358    27.9   828.8    0.00 
 116   13:40   0.98   51.3    23   17.7     3    31.4   828.8    0.00 
 116   13:50   0.96   51.3    23   12.7    22    27.0   828.7    0.00 
 116   14:00   0.94   51.0    23   16.7    17    33.8   828.8    0.00 
 116   14:10   0.91   51.0    23   15.1    20    30.7   828.8    0.00 
 116   14:20   0.88   51.2    23   14.5     2    31.7   828.8    0.00 
 116   14:30   0.85   51.4    23   16.5     6    30.9   828.9    0.00 
 116   14:40   0.82   51.4    23   15.2    16    30.4   829.0    0.00 
 116   14:50   0.78   51.8    23   14.7     8    29.6   828.9    0.00 
 116   15:00   0.76   51.6    23   15.9   358    28.6   828.9    0.00 
 116   15:10   0.69   51.9    23   14.6     4    30.9   829.0    0.00 
 116   15:20   0.68   51.6    24   17.6   358    27.9   829.0    0.00 
 116   15:30   0.66   51.7    24   18.5   358    29.3   829.0    0.00 
 116   15:40   0.62   52.2    24   16.9   355    28.8   829.0    0.00 
 116   15:50   0.58   51.9    24   20.7   354    33.5   829.1    0.00 
 116   16:00   0.54   51.7    24   18.1   359    33.0   829.0    0.00 
 116   16:10   0.50   51.6    24   20.2   352    29.7   829.0    0.00 
 116   16:20   0.46   51.5    24   20.0   354    32.6   828.9    0.00 
 116   16:30   0.41   51.4    24   17.8   347    28.6   828.9    0.00 
 116   16:40   0.38   51.6    24   16.8   350    29.7   829.0    0.00 
 116   16:50   0.34   51.4    24   18.0   352    25.7   829.0    0.00 
 116   17:00   0.31   51.4    24   15.0   344    26.1   829.0    0.00 
 116   17:10   0.27   51.3    25   14.8   357    25.1   829.0    0.00 
 116   17:20   0.22   50.8    25   16.6   351    27.0   829.0    0.00 
 116   17:30   0.18   50.5    26   16.5   346    27.2   829.0    0.00 
 116   17:40   0.14   50.1    26   16.2   340    25.7   829.0    0.00 
 116   17:50   0.08   49.7    26   15.3   339    27.6   829.0    0.00 
 116   18:00   0.04   49.2    27   14.3   344    26.2   829.1    0.00 
 116   18:10   0.02   48.8    27   13.8   344    25.1   829.1    0.00 
 116   18:20   0.01   48.6    27   13.9   344    23.6   829.1    0.00 
 116   18:30   0.01   48.3    28   15.0   347    24.4   829.2    0.00 
 116   18:40   0.00   48.1    28   14.7   345    21.4   829.3    0.00 
 116   18:50   0.00   47.9    28   12.8   342    28.4   829.4    0.00 
 116   19:00   0.00   47.6    28   12.6   340    20.2   829.5    0.00 
 116   19:10   0.00   47.4    28   11.3   338    22.6   829.6    0.00 
 116   19:20   0.00   47.0    29   10.1   338    20.1   829.7    0.00 
 116   19:30   0.00   47.1    28   12.9   342    22.0   829.9    0.00 
 116   19:40   0.00   46.9    29   12.2   334    19.6   830.0    0.00 
 116   19:50   0.00   46.7    29   13.8   346    21.6   830.1    0.00 
 116   20:00   0.00   46.4    30   13.3   348    18.5   830.1    0.00 
 116   20:10   0.00   46.4    29   13.8   352    22.9   830.2    0.00 
 116   20:20   0.00   46.1    29   15.3   350    22.4   830.4    0.00 
 116   20:30   0.00   46.0    29   13.7   353    21.2   830.5    0.00 
 116   20:40   0.00   45.9    29   14.9   351    23.4   830.6    0.00 
 116   20:50   0.00   45.9    29   14.6   355    26.8   830.7    0.00 
 116   21:00   0.00   45.8    29   15.6   357    25.0   830.9    0.00 
 116   21:10   0.00   45.7    29   17.1   354    27.5   831.0    0.00 
 116   21:20   0.00   45.5    29   15.1   351    24.0   831.0    0.00 
 116   21:30   0.00   45.2    29   15.9   353    24.8   831.0    0.00 
 116   21:40   0.00   45.1    29   17.4   354    24.3   831.1    0.00 
 116   21:50   0.00   44.9    30   14.9   354    23.6   831.1    0.00 
 116   22:00   0.00   44.7    30   14.0   356    21.8   831.2    0.00 
 116   22:10   0.00   44.4    30   15.3   355    25.8   831.2    0.00 

Return to Badger Spring Valley graphs page.


Western Regional Climate Center,wrcc@dri.edu